Impacts TAF Board
For situational awareness. Not to be used for flight planning purposes.
IDs:

KSFO - San Francisco Intl, CA, US

Issued at 2103 UTC 20 Jun 2019
Updated at 2127 UTC 20 Jun 2019
Potential Impact None Slight Moderate High
Time<<21/10Z 21/11Z 21/12Z 21/13Z 21/14Z 21/15Z 21/16Z 21/17Z 21/18Z 21/19Z 21/20Z 21/21Z 21/22Z>>
Type PRVL PRVL PRVL PRVL PRVL PRVL PRVL PRVL PRVL PRVL PRVL PRVL PRVL
VIS >6 >6 >6 >6 >6 >6 >6 >6 >6 >6 >6 >6 >6
CIG -- -- -- -- -- -- -- -- -- -- -- -- --
Cover FEW FEW FEW FEW FEW FEW FEW FEW FEW FEW FEW FEW FEW
FltCat VFR VFR VFR VFR VFR VFR VFR VFR VFR VFR VFR VFR VFR
WX -- -- -- -- -- -- -- -- -- -- -- -- --
WDir 280 280 280 280 280 280 280 280 280 280 300 300 300
WSpd 4 4 4 4 4 4 4 4 4 4 14 14 14
WGst -- -- -- -- -- -- -- -- -- -- -- -- --
Raw TAF
KSFO 202103Z 2021/2124 24008KT P6SM FEW010
  FM202300 25015G20KT P6SM FEW012
  FM210300 27013KT P6SM FEW010
  FM210400 27008KT P6SM FEW010
  FM210800 28004KT P6SM FEW010
  FM212000 30014KT P6SM FEW200


METAR Board
Radar Display
Forecast Discussion
For situational awareness. Not to be used for flight planning purposes.